Time;durP1;ratioP1;P1;durP2;ratioP2;P2;SDS_P1;SDS_P2;PMS_P1;PMS_P2;Temp;Humidity;BMP_temperature;BMP_pressure;BME280_temperature;BME280_humidity;BME280_pressure;Samples;Min_cycle;Max_cycle;Signal;HPM_P1;HPM_P2
2021/10/10 00:00:50;;;;;;;84.15;54.38;;;9.60;99.90;;;;;;5049756;28;25162;-71
2021/10/10 00:03:16;;;;;;;86.50;54.67;;;9.70;99.90;;;;;;5032499;28;25083;-70
2021/10/10 00:05:42;;;;;;;77.13;51.83;;;9.70;99.90;;;;;;5041044;28;25122;-70
2021/10/10 00:08:07;;;;;;;85.05;54.08;;;9.70;99.90;;;;;;5042241;28;25132;-70
2021/10/10 00:10:33;;;;;;;77.00;52.58;;;9.70;99.90;;;;;;5047278;28;25060;-70
2021/10/10 00:12:59;;;;;;;85.55;51.53;;;9.70;99.90;;;;;;5049414;28;25062;-70
2021/10/10 00:15:25;;;;;;;78.45;52.92;;;9.80;99.90;;;;;;5055447;28;25061;-70
2021/10/10 00:17:51;;;;;;;81.00;54.25;;;9.80;99.90;;;;;;5046942;28;25055;-69
2021/10/10 00:20:17;;;;;;;90.88;54.97;;;9.70;99.90;;;;;;5043796;28;25086;-69
2021/10/10 00:22:43;;;;;;;82.93;55.97;;;9.70;99.90;;;;;;5044581;28;25056;-70
2021/10/10 00:25:10;;;;;;;91.57;57.28;;;9.60;99.90;;;;;;5049687;28;25078;-69
2021/10/10 00:27:36;;;;;;;89.88;55.17;;;9.60;99.90;;;;;;5048311;28;25077;-69
2021/10/10 00:30:06;;;;;;;89.90;57.60;;;9.60;99.90;;;;;;5030083;28;25069;-70
2021/10/10 00:32:31;;;;;;;88.35;57.63;;;9.50;99.90;;;;;;5044131;28;25168;-70
2021/10/10 00:34:57;;;;;;;87.68;56.88;;;9.40;99.90;;;;;;5038619;28;25104;-71
2021/10/10 00:37:23;;;;;;;83.53;55.13;;;9.40;99.90;;;;;;5027725;28;25033;-70
2021/10/10 00:39:49;;;;;;;89.75;55.30;;;9.50;99.90;;;;;;5047292;28;25142;-70
2021/10/10 00:42:15;;;;;;;78.15;53.17;;;9.60;99.90;;;;;;5045616;28;25073;-69
2021/10/10 00:44:44;;;;;;;77.75;51.83;;;9.60;99.90;;;;;;5045308;28;25150;-69
2021/10/10 00:47:11;;;;;;;78.70;51.42;;;9.60;99.90;;;;;;5044444;28;25086;-69
2021/10/10 00:49:37;;;;;;;83.55;52.15;;;9.60;99.90;;;;;;5046077;28;25070;-68
2021/10/10 00:52:05;;;;;;;88.18;56.70;;;9.70;99.90;;;;;;5046793;28;25062;-69
2021/10/10 00:54:32;;;;;;;96.30;59.78;;;9.70;99.90;;;;;;5047890;28;25057;-69
2021/10/10 00:56:59;;;;;;;79.97;53.90;;;9.60;99.90;;;;;;5037766;28;25128;-68
2021/10/10 00:59:27;;;;;;;84.07;53.40;;;9.60;99.90;;;;;;5039171;28;25050;-69
2021/10/10 01:01:53;;;;;;;75.82;47.28;;;9.60;99.90;;;;;;5041708;28;25069;-69
2021/10/10 01:04:22;;;;;;;84.72;53.53;;;9.70;99.90;;;;;;5042341;28;25055;-69
2021/10/10 01:06:47;;;;;;;89.35;54.85;;;9.70;99.90;;;;;;5048504;28;25139;-69
2021/10/10 01:09:14;;;;;;;77.55;52.75;;;9.60;99.90;;;;;;5047983;28;25100;-67
2021/10/10 01:11:42;;;;;;;94.55;57.33;;;9.50;99.90;;;;;;5044562;28;25119;-69
2021/10/10 01:14:10;;;;;;;77.55;53.03;;;9.40;99.90;;;;;;5044208;28;25054;-68
2021/10/10 01:16:36;;;;;;;83.38;54.20;;;9.40;99.90;;;;;;5045245;28;25065;-69
2021/10/10 01:19:01;;;;;;;83.45;54.58;;;9.30;99.90;;;;;;5048131;28;25068;-68
2021/10/10 01:21:27;;;;;;;89.78;55.75;;;9.30;99.90;;;;;;5044829;28;25088;-69
2021/10/10 01:23:52;;;;;;;85.45;55.67;;;9.30;99.90;;;;;;5025203;28;25060;-68
2021/10/10 01:26:21;;;;;;;85.40;56.75;;;9.20;99.90;;;;;;5033146;28;25080;-69
2021/10/10 01:28:50;;;;;;;72.53;48.97;;;9.10;99.90;;;;;;5045601;28;25072;-69
2021/10/10 01:31:16;;;;;;;68.25;48.58;;;9.20;99.90;;;;;;5043633;28;25070;-70
2021/10/10 01:33:45;;;;;;;70.25;49.17;;;9.30;99.90;;;;;;5050019;28;25064;-69
2021/10/10 01:36:11;;;;;;;75.32;48.13;;;9.30;99.90;;;;;;5047657;28;25060;-70
2021/10/10 01:38:37;;;;;;;76.55;50.03;;;9.30;99.90;;;;;;5046712;28;25068;-68
2021/10/10 01:41:03;;;;;;;81.25;51.75;;;9.20;99.90;;;;;;5041615;28;25052;-69
2021/10/10 01:43:28;;;;;;;83.55;52.45;;;9.10;99.90;;;;;;5034890;28;25071;-72
2021/10/10 01:45:54;;;;;;;78.78;52.10;;;9.10;99.90;;;;;;5045967;28;25082;-68
2021/10/10 01:48:20;;;;;;;75.20;50.28;;;9.10;99.90;;;;;;5025643;28;25070;-68
2021/10/10 01:50:46;;;;;;;83.07;51.42;;;9.10;99.90;;;;;;5037121;28;25130;-68
2021/10/10 01:53:11;;;;;;;78.13;51.17;;;9.10;99.90;;;;;;5047208;28;25070;-69
2021/10/10 01:55:37;;;;;;;72.72;48.40;;;9.10;99.90;;;;;;5029823;28;25104;-69
2021/10/10 01:58:03;;;;;;;76.72;49.42;;;9.00;99.90;;;;;;5023649;28;25071;-69
2021/10/10 02:00:28;;;;;;;72.95;50.33;;;9.00;99.90;;;;;;5048757;28;25105;-70
2021/10/10 02:02:54;;;;;;;75.95;49.83;;;9.00;99.90;;;;;;5027990;28;25074;-69
2021/10/10 02:05:20;;;;;;;78.70;51.78;;;9.00;99.90;;;;;;5047062;28;25063;-70
2021/10/10 02:07:45;;;;;;;77.65;52.65;;;8.90;99.90;;;;;;5047284;28;25127;-70
2021/10/10 02:10:11;;;;;;;85.78;54.67;;;8.80;99.90;;;;;;5047586;28;25069;-69
2021/10/10 02:12:37;;;;;;;79.53;48.97;;;8.80;99.90;;;;;;5037861;28;25115;-68
2021/10/10 02:15:05;;;;;;;70.68;47.67;;;8.80;99.90;;;;;;5049099;28;25052;-68
2021/10/10 02:17:33;;;;;;;72.20;49.05;;;8.90;99.90;;;;;;5049197;28;25056;-70
2021/10/10 02:20:25;;;;;;;75.75;48.88;;;8.80;99.90;;;;;;5049264;28;25135;-70
2021/10/10 02:22:51;;;;;;;71.10;46.08;;;8.80;99.90;;;;;;5044114;28;25128;-69
2021/10/10 02:25:16;;;;;;;83.15;49.65;;;8.80;99.90;;;;;;5037575;28;25141;-69
2021/10/10 02:27:43;;;;;;;71.95;48.47;;;8.80;99.90;;;;;;5051528;28;25084;-69
2021/10/10 02:30:09;;;;;;;80.80;51.70;;;8.80;99.90;;;;;;5067966;23;25061;-77
2021/10/10 02:32:36;;;;;;;78.55;50.75;;;8.80;99.90;;;;;;5047780;28;25068;-75
2021/10/10 02:35:02;;;;;;;70.03;48.08;;;8.70;99.90;;;;;;5039747;28;25062;-75
2021/10/10 02:37:27;;;;;;;66.22;45.47;;;8.70;99.90;;;;;;5048219;28;25075;-75
2021/10/10 02:39:53;;;;;;;81.07;49.67;;;8.70;99.90;;;;;;5049673;28;25063;-75
2021/10/10 02:42:19;;;;;;;75.32;50.78;;;8.70;99.90;;;;;;5050963;28;25071;-75
2021/10/10 02:44:44;;;;;;;73.72;48.63;;;8.70;99.90;;;;;;5033668;28;25063;-74
2021/10/10 02:47:10;;;;;;;69.60;47.17;;;8.60;99.90;;;;;;5053629;28;25082;-75
2021/10/10 02:49:35;;;;;;;69.30;46.45;;;8.60;99.90;;;;;;5042152;28;25072;-75
2021/10/10 02:52:01;;;;;;;68.88;43.33;;;8.50;99.90;;;;;;5045815;28;25078;-76
2021/10/10 02:54:26;;;;;;;62.22;43.20;;;8.50;99.90;;;;;;5050317;28;25050;-74
2021/10/10 02:56:52;;;;;;;65.35;42.55;;;8.50;99.90;;;;;;5044426;28;25195;-75
2021/10/10 02:59:17;;;;;;;72.75;46.25;;;8.50;99.90;;;;;;5048517;28;25073;-75
2021/10/10 03:01:43;;;;;;;67.88;44.35;;;8.50;99.90;;;;;;5059002;28;25113;-74
2021/10/10 03:04:08;;;;;;;69.63;45.08;;;8.50;99.90;;;;;;5047663;28;25079;-75
2021/10/10 03:06:34;;;;;;;62.80;44.55;;;8.50;99.90;;;;;;5048988;28;25102;-75
2021/10/10 03:09:00;;;;;;;69.30;45.58;;;8.40;99.90;;;;;;5048845;28;25158;-75
2021/10/10 03:11:25;;;;;;;69.03;45.47;;;8.40;99.90;;;;;;5049982;28;25083;-76
2021/10/10 03:13:51;;;;;;;72.20;44.83;;;8.40;99.90;;;;;;5047304;28;25158;-77
2021/10/10 03:16:16;;;;;;;62.33;43.80;;;8.50;99.90;;;;;;5049637;28;25066;-75
2021/10/10 03:18:42;;;;;;;69.07;46.10;;;8.50;99.90;;;;;;5051093;28;25102;-76
2021/10/10 03:21:07;;;;;;;74.57;45.55;;;8.50;99.90;;;;;;5050896;28;25056;-75
2021/10/10 03:23:33;;;;;;;63.10;44.80;;;8.50;99.90;;;;;;5059747;28;25124;-75
2021/10/10 03:25:59;;;;;;;67.40;46.00;;;8.50;99.90;;;;;;5031083;28;25063;-74
2021/10/10 03:28:24;;;;;;;64.95;43.15;;;8.40;99.90;;;;;;5049608;28;25164;-75
2021/10/10 03:30:50;;;;;;;68.38;44.35;;;8.40;99.90;;;;;;5049720;28;25081;-76
2021/10/10 03:33:15;;;;;;;64.63;45.17;;;8.50;99.90;;;;;;5050917;28;25072;-75
2021/10/10 03:35:41;;;;;;;71.97;46.05;;;8.50;99.90;;;;;;5055378;28;25088;-76
2021/10/10 03:38:07;;;;;;;75.30;49.75;;;8.40;99.90;;;;;;5046184;28;25144;-75
2021/10/10 03:40:33;;;;;;;71.63;48.15;;;8.40;99.90;;;;;;5050952;28;25070;-76
2021/10/10 03:42:59;;;;;;;74.95;49.15;;;8.30;99.90;;;;;;5049749;28;25086;-76
2021/10/10 03:45:24;;;;;;;67.40;46.17;;;8.30;99.90;;;;;;5049465;28;25080;-75
2021/10/10 03:47:50;;;;;;;61.67;42.65;;;8.30;99.90;;;;;;5041605;28;25145;-74
2021/10/10 03:50:16;;;;;;;58.75;42.38;;;8.30;99.90;;;;;;5041361;28;25064;-76
2021/10/10 03:52:42;;;;;;;58.55;43.25;;;8.30;99.90;;;;;;5063150;28;25075;-75
2021/10/10 03:57:35;;;;;;;77.00;48.88;;;8.30;99.90;;;;;;5050015;28;25137;-76
2021/10/10 04:00:06;;;;;;;69.78;47.13;;;8.20;99.90;;;;;;5048117;28;25140;-76
2021/10/10 04:02:32;;;;;;;69.50;46.20;;;8.10;99.90;;;;;;5042177;28;25058;-76
2021/10/10 04:04:59;;;;;;;68.00;44.95;;;8.10;99.90;;;;;;5049896;28;25134;-74
2021/10/10 04:07:24;;;;;;;76.20;48.05;;;8.10;99.90;;;;;;5034722;28;25096;-75
2021/10/10 04:09:51;;;;;;;74.45;47.45;;;8.10;99.90;;;;;;5046726;28;25165;-75
2021/10/10 04:12:16;;;;;;;65.82;43.30;;;8.00;99.90;;;;;;5041315;28;25075;-75
2021/10/10 04:14:42;;;;;;;64.60;44.08;;;8.10;99.90;;;;;;5037040;28;25109;-75
2021/10/10 04:17:07;;;;;;;79.75;47.80;;;8.10;99.90;;;;;;5045430;28;25074;-75
2021/10/10 04:19:33;;;;;;;66.85;45.35;;;8.10;99.90;;;;;;5040194;28;25094;-76
2021/10/10 04:21:59;;;;;;;65.03;45.97;;;8.10;99.90;;;;;;5036129;28;25118;-74
2021/10/10 04:24:25;;;;;;;78.03;49.92;;;8.00;99.90;;;;;;5037956;28;25073;-75
2021/10/10 04:26:51;;;;;;;75.63;49.90;;;8.00;99.90;;;;;;5045596;28;25068;-75
2021/10/10 04:29:16;;;;;;;70.30;46.15;;;8.00;99.90;;;;;;5043999;28;25104;-76
2021/10/10 04:31:43;;;;;;;68.45;44.70;;;8.00;99.90;;;;;;5039612;28;25059;-76
2021/10/10 04:34:11;;;;;;;66.47;44.72;;;7.90;99.90;;;;;;5035975;28;25057;-75
2021/10/10 04:36:37;;;;;;;72.68;46.83;;;8.00;99.90;;;;;;5041931;28;25082;-75
2021/10/10 04:39:03;;;;;;;65.63;43.10;;;7.90;99.90;;;;;;5041587;28;25136;-77
2021/10/10 04:41:30;;;;;;;72.78;47.83;;;8.00;99.90;;;;;;5038296;28;25189;-75
2021/10/10 04:43:58;;;;;;;71.20;46.58;;;8.00;99.90;;;;;;5036801;28;25142;-75
2021/10/10 04:46:23;;;;;;;67.63;45.83;;;8.00;99.90;;;;;;5048641;28;25110;-75
2021/10/10 04:48:49;;;;;;;59.83;40.95;;;8.00;99.90;;;;;;5038800;28;25089;-76
2021/10/10 04:51:14;;;;;;;67.75;45.03;;;8.10;99.90;;;;;;5048267;28;25076;-75
2021/10/10 04:53:40;;;;;;;65.93;45.50;;;8.00;99.90;;;;;;5029701;28;25079;-76
2021/10/10 04:56:06;;;;;;;69.80;46.67;;;8.00;99.90;;;;;;5036020;28;25067;-75
2021/10/10 04:58:31;;;;;;;66.57;44.17;;;8.00;99.90;;;;;;5019570;28;25053;-76
2021/10/10 05:00:57;;;;;;;63.00;43.90;;;8.00;99.90;;;;;;5044768;28;25065;-75
2021/10/10 05:03:23;;;;;;;70.13;46.20;;;8.00;99.90;;;;;;5021163;28;25133;-77
2021/10/10 05:05:50;;;;;;;60.95;41.63;;;7.90;99.90;;;;;;5041126;28;25089;-76
2021/10/10 05:08:16;;;;;;;69.18;46.17;;;7.90;99.90;;;;;;5026122;28;25058;-76
2021/10/10 05:10:42;;;;;;;60.10;42.58;;;7.90;99.90;;;;;;5038935;28;25060;-75
2021/10/10 05:13:07;;;;;;;65.05;43.03;;;7.90;99.90;;;;;;5042966;28;25144;-75
2021/10/10 05:15:33;;;;;;;58.85;40.72;;;7.90;99.90;;;;;;5034717;28;25071;-75
2021/10/10 05:17:59;;;;;;;60.00;43.35;;;7.90;99.90;;;;;;5037372;28;25072;-76
2021/10/10 05:20:24;;;;;;;55.53;39.42;;;7.90;99.90;;;;;;5039478;28;25068;-76
2021/10/10 05:22:50;;;;;;;59.67;39.13;;;7.90;99.90;;;;;;5042352;28;25077;-75
2021/10/10 05:25:16;;;;;;;64.05;42.47;;;8.00;99.90;;;;;;5041639;28;25175;-75
2021/10/10 05:27:42;;;;;;;58.67;39.20;;;8.00;99.90;;;;;;5048347;28;25053;-75
2021/10/10 05:30:08;;;;;;;63.42;41.00;;;8.00;99.90;;;;;;5049822;28;25056;-76
2021/10/10 05:32:35;;;;;;;59.40;40.75;;;8.00;99.90;;;;;;5052673;28;25113;-75
2021/10/10 05:35:01;;;;;;;62.08;42.33;;;8.10;99.90;;;;;;5059936;28;25054;-75
2021/10/10 05:37:27;;;;;;;56.88;39.58;;;8.00;99.90;;;;;;5065960;28;25082;-75
2021/10/10 05:39:54;;;;;;;62.30;43.58;;;8.00;99.90;;;;;;5067688;28;25058;-75
2021/10/10 05:42:20;;;;;;;62.00;42.85;;;7.90;99.90;;;;;;5043563;28;25081;-76
2021/10/10 05:44:45;;;;;;;59.03;40.47;;;8.00;99.90;;;;;;5051670;28;25068;-75
2021/10/10 05:47:11;;;;;;;66.20;40.78;;;7.80;99.90;;;;;;5056228;28;25124;-76
2021/10/10 05:49:37;;;;;;;54.85;39.97;;;7.90;99.90;;;;;;5041541;28;25103;-74
2021/10/10 05:52:05;;;;;;;60.80;39.92;;;8.00;99.90;;;;;;5046501;28;25070;-75
2021/10/10 05:54:33;;;;;;;62.65;42.55;;;8.00;99.90;;;;;;5048613;28;25117;-76
2021/10/10 05:57:02;;;;;;;63.17;42.03;;;8.00;99.90;;;;;;5037259;28;25050;-74
2021/10/10 05:59:33;;;;;;;67.30;45.45;;;8.00;99.90;;;;;;5048202;28;25069;-77
2021/10/10 06:01:59;;;;;;;66.18;43.85;;;8.00;99.90;;;;;;5053676;28;25082;-75
2021/10/10 06:04:25;;;;;;;65.63;43.80;;;8.00;99.90;;;;;;5057258;28;25112;-77
2021/10/10 06:06:50;;;;;;;59.40;40.58;;;8.00;99.90;;;;;;5049358;28;25081;-75
2021/10/10 06:09:16;;;;;;;64.00;45.40;;;8.10;99.90;;;;;;5034941;28;25055;-76
2021/10/10 06:11:42;;;;;;;66.57;45.30;;;8.20;99.90;;;;;;5049155;28;25061;-76
2021/10/10 06:14:07;;;;;;;69.70;44.15;;;8.20;99.90;;;;;;5031239;28;25052;-75
2021/10/10 06:16:34;;;;;;;59.80;41.83;;;8.20;99.90;;;;;;5062418;28;25053;-77
2021/10/10 06:19:01;;;;;;;59.95;41.25;;;8.30;99.90;;;;;;5061914;28;25073;-77
2021/10/10 06:21:27;;;;;;;66.03;42.60;;;8.30;99.90;;;;;;5047106;28;25091;-75
2021/10/10 06:23:53;;;;;;;57.28;40.30;;;8.50;99.90;;;;;;5044564;28;25069;-77
2021/10/10 06:26:20;;;;;;;56.25;38.35;;;8.50;99.90;;;;;;5052784;28;25076;-76
2021/10/10 06:28:46;;;;;;;54.55;38.70;;;8.50;99.90;;;;;;5053061;28;25062;-75
2021/10/10 06:31:11;;;;;;;59.65;42.33;;;8.60;99.90;;;;;;5053244;28;25074;-76
2021/10/10 06:33:37;;;;;;;61.92;43.50;;;8.60;99.90;;;;;;5033383;28;25062;-75
2021/10/10 06:36:02;;;;;;;67.53;46.03;;;8.50;99.90;;;;;;5049804;28;25068;-76
2021/10/10 06:38:28;;;;;;;61.45;45.30;;;8.40;99.90;;;;;;5052454;28;25168;-75
2021/10/10 06:40:54;;;;;;;62.15;42.30;;;8.40;99.90;;;;;;5034051;28;25060;-75
2021/10/10 06:43:19;;;;;;;53.28;38.42;;;8.40;99.90;;;;;;5066192;28;25080;-76
2021/10/10 06:45:45;;;;;;;49.83;37.30;;;8.70;99.90;;;;;;5049380;28;25064;-76
2021/10/10 06:48:10;;;;;;;53.13;39.05;;;8.90;99.90;;;;;;5041041;28;25067;-75
2021/10/10 06:50:36;;;;;;;55.13;39.47;;;9.00;99.90;;;;;;5025854;28;25137;-76
2021/10/10 06:53:02;;;;;;;54.92;41.25;;;9.00;99.90;;;;;;5035881;28;25054;-77
2021/10/10 06:55:27;;;;;;;58.45;42.17;;;9.00;99.90;;;;;;5051139;28;25061;-75
2021/10/10 06:57:53;;;;;;;55.65;40.80;;;9.00;99.90;;;;;;5049580;28;25055;-76
2021/10/10 07:00:19;;;;;;;54.30;40.20;;;9.10;99.90;;;;;;5048955;28;25103;-75
2021/10/10 07:02:44;;;;;;;41.72;35.72;;;9.10;99.90;;;;;;5054183;28;25091;-76
2021/10/10 07:05:10;;;;;;;41.97;34.97;;;9.10;99.90;;;;;;5049519;28;25073;-76
2021/10/10 07:07:36;;;;;;;43.80;32.78;;;9.30;99.90;;;;;;5042279;28;25107;-75
2021/10/10 07:10:04;;;;;;;32.63;29.02;;;9.50;99.90;;;;;;5048194;28;25133;-75
2021/10/10 07:12:29;;;;;;;40.30;34.05;;;9.60;99.90;;;;;;5041581;28;25102;-75
2021/10/10 07:14:55;;;;;;;40.53;32.67;;;9.60;99.90;;;;;;5051911;28;25077;-75
2021/10/10 07:17:25;;;;;;;41.17;34.85;;;9.50;99.90;;;;;;5030955;28;25088;-76
2021/10/10 07:19:55;;;;;;;42.33;36.47;;;9.40;99.90;;;;;;5035295;28;25172;-75
2021/10/10 07:22:32;;;;;;;40.20;32.85;;;9.50;99.90;;;;;;5028809;28;25072;-75
2021/10/10 07:25:04;;;;;;;43.33;34.38;;;9.60;99.90;;;;;;5042020;28;25068;-75
2021/10/10 07:27:44;;;;;;;43.15;33.95;;;9.50;99.90;;;;;;5046850;28;25116;-76
2021/10/10 07:30:13;;;;;;;40.05;34.00;;;9.50;99.90;;;;;;5044020;28;25100;-75
2021/10/10 07:32:39;;;;;;;41.97;32.88;;;9.60;99.90;;;;;;5045944;28;25115;-75
2021/10/10 07:35:06;;;;;;;43.10;35.22;;;9.80;99.90;;;;;;5042623;28;25067;-76
2021/10/10 07:37:32;;;;;;;42.28;36.40;;;9.80;99.90;;;;;;5032632;28;25054;-76
2021/10/10 07:39:58;;;;;;;46.78;38.03;;;9.80;99.90;;;;;;5047690;28;25143;-75
2021/10/10 07:42:24;;;;;;;50.38;39.67;;;9.80;99.90;;;;;;5041367;28;25139;-76
2021/10/10 07:44:54;;;;;;;47.38;39.78;;;9.90;99.90;;;;;;5052069;28;25070;-76
2021/10/10 07:49:49;;;;;;;47.72;39.78;;;9.80;99.90;;;;;;5050410;28;25104;-75
2021/10/10 07:52:15;;;;;;;50.72;40.58;;;9.90;99.90;;;;;;5033114;28;25134;-77
2021/10/10 07:54:41;;;;;;;50.90;40.63;;;10.00;99.90;;;;;;5040824;28;25093;-76
2021/10/10 07:57:07;;;;;;;52.63;42.22;;;10.00;99.90;;;;;;5050802;28;25168;-75
2021/10/10 07:59:33;;;;;;;58.53;44.05;;;10.10;99.90;;;;;;5052243;28;25089;-77
2021/10/10 08:01:59;;;;;;;59.47;44.60;;;10.20;99.90;;;;;;5041272;28;25158;-76
2021/10/10 08:04:25;;;;;;;65.47;46.88;;;10.20;99.90;;;;;;5051792;28;25058;-76
2021/10/10 08:06:52;;;;;;;49.55;38.35;;;10.30;99.90;;;;;;5043122;28;25097;-76
2021/10/10 08:09:17;;;;;;;54.65;37.95;;;10.60;99.90;;;;;;5029984;28;25085;-76
2021/10/10 08:11:44;;;;;;;50.13;37.55;;;10.90;99.90;;;;;;5034141;28;25124;-77
2021/10/10 08:14:11;;;;;;;46.38;36.42;;;11.10;99.90;;;;;;5052040;28;25063;-77
2021/10/10 08:16:38;;;;;;;51.88;38.17;;;11.20;99.90;;;;;;5050937;28;25107;-74
2021/10/10 08:19:05;;;;;;;53.13;38.78;;;11.20;99.90;;;;;;5053786;28;25122;-75
2021/10/10 08:21:31;;;;;;;51.70;38.00;;;11.10;99.90;;;;;;5041388;28;25071;-75
2021/10/10 08:23:58;;;;;;;50.85;39.70;;;11.30;99.90;;;;;;5046679;28;25152;-76
2021/10/10 08:26:24;;;;;;;50.00;39.30;;;11.40;99.90;;;;;;5051068;28;25059;-77
2021/10/10 08:28:49;;;;;;;54.22;38.65;;;11.40;99.90;;;;;;5050129;28;25077;-77
2021/10/10 08:31:15;;;;;;;51.10;38.33;;;11.60;99.90;;;;;;5048027;28;25064;-77
2021/10/10 08:33:40;;;;;;;51.15;37.75;;;11.70;99.90;;;;;;5047274;28;25062;-75
2021/10/10 08:36:08;;;;;;;53.13;40.38;;;11.80;99.90;;;;;;5052919;28;25060;-76
2021/10/10 08:38:36;;;;;;;49.22;37.60;;;11.90;99.90;;;;;;5057178;28;25066;-77
2021/10/10 08:41:04;;;;;;;56.28;38.38;;;12.00;99.90;;;;;;5032207;28;25105;-75
2021/10/10 08:43:31;;;;;;;52.10;39.95;;;12.30;99.90;;;;;;5063921;28;25069;-76
2021/10/10 08:46:02;;;;;;;54.90;39.78;;;12.50;99.90;;;;;;5052600;28;25076;-76
2021/10/10 08:48:28;;;;;;;55.47;39.22;;;12.60;99.90;;;;;;5051721;28;25065;-76
2021/10/10 08:50:55;;;;;;;56.20;39.08;;;12.70;99.90;;;;;;5033240;28;25049;-76
2021/10/10 08:53:22;;;;;;;51.30;38.70;;;12.80;99.90;;;;;;5029935;28;25094;-77
2021/10/10 08:55:48;;;;;;;56.55;39.33;;;12.90;99.90;;;;;;5050866;28;25074;-76
2021/10/10 08:58:17;;;;;;;48.85;37.92;;;12.80;99.90;;;;;;5062951;28;25101;-75
2021/10/10 09:00:52;;;;;;;58.45;39.80;;;12.80;99.90;;;;;;5032726;28;25067;-76
2021/10/10 09:03:18;;;;;;;60.25;41.08;;;12.80;99.90;;;;;;5053182;28;25060;-77
2021/10/10 09:05:46;;;;;;;56.83;40.03;;;12.90;99.90;;;;;;5046331;28;25117;-77
2021/10/10 09:08:13;;;;;;;58.00;41.65;;;12.90;99.90;;;;;;5050756;28;25126;-78
2021/10/10 09:10:39;;;;;;;56.72;41.00;;;12.80;99.90;;;;;;5043137;28;25075;-73
2021/10/10 09:13:16;;;;;;;56.90;40.83;;;12.80;99.90;;;;;;5040126;28;25151;-75
2021/10/10 09:15:46;;;;;;;54.22;40.70;;;12.80;99.90;;;;;;5042886;28;24849;-76
2021/10/10 09:18:13;;;;;;;55.30;38.78;;;12.80;99.90;;;;;;5042198;28;25069;-75
2021/10/10 09:20:45;;;;;;;48.30;38.13;;;13.00;99.90;;;;;;5040801;28;25078;-79
2021/10/10 09:23:20;;;;;;;48.42;37.30;;;13.10;99.90;;;;;;5047118;28;25084;-75
2021/10/10 09:26:12;;;;;;;49.50;38.05;;;13.30;99.90;;;;;;5033263;28;25063;-76
2021/10/10 09:28:40;;;;;;;44.35;34.28;;;13.40;99.90;;;;;;5045161;28;25085;-77
2021/10/10 09:31:07;;;;;;;47.00;33.58;;;13.50;99.90;;;;;;5054875;28;25078;-77
2021/10/10 09:33:40;;;;;;;47.85;35.35;;;13.70;99.90;;;;;;5049607;28;25066;-76
2021/10/10 09:36:10;;;;;;;45.05;34.40;;;13.80;99.90;;;;;;5050823;28;25090;-76
2021/10/10 09:38:44;;;;;;;51.65;35.67;;;13.70;99.90;;;;;;5052545;28;25049;-76
2021/10/10 09:41:25;;;;;;;53.38;35.60;;;13.90;99.90;;;;;;5035681;28;25076;-77
2021/10/10 09:46:41;;;;;;;55.25;33.45;;;14.10;99.90;;;;;;5038855;28;25111;-77
2021/10/10 09:49:27;;;;;;;48.20;36.10;;;14.20;99.90;;;;;;5051147;28;25172;-76
2021/10/10 09:51:54;;;;;;;47.42;36.72;;;14.50;99.90;;;;;;5065808;28;25062;-77
2021/10/10 09:54:20;;;;;;;56.33;37.35;;;14.40;99.90;;;;;;5050574;28;25140;-74
2021/10/10 09:57:08;;;;;;;51.92;38.13;;;14.70;99.90;;;;;;5048190;28;25076;-76
2021/10/10 09:59:34;;;;;;;60.05;40.08;;;14.80;99.90;;;;;;5038232;28;25082;-78
2021/10/10 10:02:00;;;;;;;53.03;36.85;;;14.80;99.90;;;;;;5039272;28;25077;-76
2021/10/10 10:04:26;;;;;;;53.08;37.88;;;14.70;99.90;;;;;;5042013;28;25096;-76
2021/10/10 10:06:58;;;;;;;50.17;37.63;;;14.90;99.90;;;;;;5038842;28;25345;-77
2021/10/10 10:09:24;;;;;;;55.75;41.88;;;14.70;99.90;;;;;;5037637;28;25141;-74
2021/10/10 10:11:49;;;;;;;58.47;39.35;;;14.30;99.90;;;;;;5042135;28;25129;-75
2021/10/10 10:14:17;;;;;;;66.68;41.97;;;14.10;99.90;;;;;;5045770;28;25053;-75
2021/10/10 10:16:52;;;;;;;60.78;42.13;;;13.90;99.90;;;;;;5042358;28;25074;-76
2021/10/10 10:19:20;;;;;;;64.50;43.00;;;13.90;99.90;;;;;;5049090;28;25086;-76
2021/10/10 10:21:49;;;;;;;61.17;43.45;;;14.00;99.90;;;;;;5060001;28;25081;-75
2021/10/10 10:24:17;;;;;;;58.15;41.05;;;14.00;99.90;;;;;;5051278;28;25060;-74
2021/10/10 10:26:43;;;;;;;59.70;40.00;;;14.20;99.90;;;;;;5051582;28;25157;-76
2021/10/10 10:29:14;;;;;;;59.03;41.88;;;14.60;99.90;;;;;;5047881;28;25111;-76
2021/10/10 10:31:45;;;;;;;61.40;41.63;;;14.70;99.90;;;;;;5037973;28;25080;-75
2021/10/10 10:34:18;;;;;;;66.93;42.50;;;14.70;99.90;;;;;;5057823;28;25047;-74
2021/10/10 10:36:49;;;;;;;65.70;45.10;;;14.70;99.90;;;;;;5047030;28;25071;-74
2021/10/10 10:39:33;;;;;;;72.30;47.17;;;14.60;99.90;;;;;;5050616;28;25067;-73
2021/10/10 10:41:59;;;;;;;67.47;45.17;;;14.40;99.90;;;;;;5031910;28;25063;-75
2021/10/10 10:44:48;;;;;;;69.63;45.30;;;14.50;99.90;;;;;;5064020;28;25105;-78
2021/10/10 10:47:42;;;;;;;70.13;44.92;;;14.90;99.90;;;;;;5069762;28;25078;-79
2021/10/10 10:50:24;;;;;;;66.13;44.35;;;15.30;99.90;;;;;;5079590;28;25059;-76
2021/10/10 10:53:02;;;;;;;73.20;48.20;;;15.40;99.90;;;;;;5040150;28;25057;-78
2021/10/10 10:55:38;;;;;;;72.22;47.85;;;15.40;99.90;;;;;;5029475;28;25077;-78
2021/10/10 10:58:11;;;;;;;65.53;46.25;;;14.90;99.90;;;;;;5045181;28;25060;-78
2021/10/10 11:00:42;;;;;;;67.75;46.45;;;15.00;99.90;;;;;;5043548;28;25147;-77
2021/10/10 11:03:18;;;;;;;68.38;44.80;;;15.00;99.90;;;;;;5048651;28;25073;-75
2021/10/10 11:05:54;;;;;;;70.93;48.33;;;15.10;99.90;;;;;;5046251;28;25111;-77
2021/10/10 11:08:27;;;;;;;85.05;47.80;;;15.40;99.90;;;;;;5050509;28;25128;-79
2021/10/10 11:11:07;;;;;;;69.82;47.15;;;15.40;99.90;;;;;;5052047;28;25065;-78
2021/10/10 11:13:59;;;;;;;72.05;43.72;;;15.50;99.90;;;;;;5050726;28;25111;-78
2021/10/10 11:16:25;;;;;;;69.18;45.58;;;15.50;99.90;;;;;;5036993;28;25062;-75
2021/10/10 11:18:53;;;;;;;69.15;43.95;;;15.70;99.90;;;;;;5052579;28;25068;-79
2021/10/10 11:21:24;;;;;;;70.57;45.05;;;15.80;99.90;;;;;;5052212;28;25060;-75
2021/10/10 11:23:54;;;;;;;69.55;46.17;;;16.20;99.90;;;;;;5045808;28;25118;-79
2021/10/10 11:26:21;;;;;;;71.07;48.65;;;16.00;99.90;;;;;;5059516;28;25051;-77
2021/10/10 11:28:48;;;;;;;68.07;46.63;;;15.90;99.90;;;;;;5059886;28;25077;-79
2021/10/10 11:31:20;;;;;;;67.60;47.10;;;15.80;99.90;;;;;;5050021;28;25049;-77
2021/10/10 11:33:48;;;;;;;73.57;47.20;;;15.80;99.90;;;;;;5048397;28;25058;-78
2021/10/10 11:36:15;;;;;;;66.75;45.75;;;15.40;99.90;;;;;;5052400;28;25072;-78
2021/10/10 11:38:54;;;;;;;66.82;47.20;;;15.20;99.90;;;;;;5051191;28;25064;-78
2021/10/10 11:41:21;;;;;;;68.65;43.95;;;15.40;99.90;;;;;;5036746;28;25123;-78
2021/10/10 11:44:14;;;;;;;63.78;45.58;;;15.40;99.90;;;;;;5053197;28;25066;-80
2021/10/10 11:46:42;;;;;;;61.58;42.90;;;15.50;99.90;;;;;;5030401;28;25072;-77
2021/10/10 11:49:34;;;;;;;67.72;44.47;;;15.60;99.90;;;;;;5046045;28;25055;-77
2021/10/10 11:54:49;;;;;;;61.47;42.83;;;15.70;99.90;;;;;;5050736;28;25062;-78
2021/10/10 11:57:15;;;;;;;59.38;42.28;;;15.90;99.90;;;;;;5048735;28;25134;-77
2021/10/10 11:59:55;;;;;;;66.35;42.50;;;16.10;99.90;;;;;;5038403;28;25122;-78
2021/10/10 12:02:21;;;;;;;58.22;40.97;;;16.40;99.90;;;;;;5039701;28;25073;-77
2021/10/10 12:04:46;;;;;;;58.10;42.38;;;16.60;99.90;;;;;;5059190;28;25075;-79
2021/10/10 12:07:13;;;;;;;61.33;44.30;;;17.00;99.90;;;;;;5037771;28;25060;-79
2021/10/10 12:09:49;;;;;;;59.92;42.80;;;16.80;99.90;;;;;;5055796;28;25081;-78
2021/10/10 12:12:15;;;;;;;61.10;43.58;;;16.60;99.90;;;;;;5050895;28;25064;-78
2021/10/10 12:14:52;;;;;;;61.95;42.63;;;16.40;99.90;;;;;;5041339;28;25079;-77
2021/10/10 12:17:34;;;;;;;57.75;42.10;;;16.90;99.90;;;;;;5043462;28;25078;-76
2021/10/10 12:20:18;;;;;;;63.75;44.28;;;17.30;99.90;;;;;;5047692;28;25075;-78
2021/10/10 12:22:46;;;;;;;56.95;42.80;;;17.80;99.90;;;;;;5065305;28;25060;-78
2021/10/10 12:25:24;;;;;;;61.08;43.35;;;17.50;99.90;;;;;;5066305;28;25074;-76
2021/10/10 12:27:56;;;;;;;61.22;42.25;;;17.60;99.90;;;;;;5051991;28;25158;-78
2021/10/10 12:30:31;;;;;;;62.60;43.70;;;17.30;99.90;;;;;;5060016;28;25064;-78
2021/10/10 12:32:58;;;;;;;55.90;39.17;;;16.60;99.90;;;;;;5064604;28;25079;-81
2021/10/10 12:35:24;;;;;;;57.42;38.95;;;16.40;99.90;;;;;;5054518;28;25128;-78
2021/10/10 12:37:58;;;;;;;49.42;36.40;;;16.60;99.90;;;;;;5050326;28;25051;-77
2021/10/10 12:40:34;;;;;;;47.63;37.08;;;16.80;99.90;;;;;;5044525;28;25127;-76
2021/10/10 12:43:00;;;;;;;47.15;33.78;;;17.00;99.90;;;;;;5048199;28;25071;-77
2021/10/10 12:45:33;;;;;;;48.00;37.42;;;17.50;99.90;;;;;;5052372;28;25076;-78
2021/10/10 12:48:05;;;;;;;50.47;34.88;;;17.70;99.90;;;;;;5052563;28;25055;-75